Sirios Cement IV — 9HQE8 — position and weather

sailwx.info

Track history (hours):
 
Tides and Currents Weather Stations Pressure Air Temp Water Temp Dewpoint Dewpoint Depression Visibility Wind Speed Wind Dir Waves Ship Positions

Sirios Cement IV

Last reported at 2016-Feb-11 21:19 UTC. Time now 2016-Feb-14 14:46 UTC.
Position N 45°04' E 012°44'.

Length 134 m; draft 5.9 m.

Type: Cargo ship. MMSI: 256278000.

Date/timePositionNaut miles runAvg speedWind from/ knotsBaromVisibWave heightAir tempDewpointWater temp
2016-Feb-11 21:19N 45°04' E 012°44'810.2
2016-Feb-11 20:33N 45°09' E 012°36'1010.0
2016-Feb-11 19:33N 45°17' E 012°26'9 8.8
2016-Feb-11 18:33N 45°21' E 012°15'6 6.2
2016-Feb-11 17:32N 45°28' E 012°15'0 0.0
2016-Feb-09 19:15N 45°28' E 012°15'0 0.0
2016-Feb-09 18:33N 45°28' E 012°15'0 0.0
2016-Feb-09 17:27N 45°28' E 012°15'0 0.0
2016-Feb-09 13:18N 45°28' E 012°15'0 0.0
2016-Feb-09 12:27N 45°28' E 012°15'0 0.0
2016-Feb-09 10:18N 45°28' E 012°15'0 0.0
2016-Feb-09 09:33N 45°28' E 012°15'0 0.0
2016-Feb-09 08:33N 45°28' E 012°15'0 0.0
2016-Feb-09 07:33N 45°28' E 012°15'0 0.0
2016-Feb-09 06:33N 45°28' E 012°15'0 0.0
2016-Feb-09 05:30N 45°28' E 012°15'0 0.0
2016-Feb-09 04:24N 45°28' E 012°15'0 0.0
2016-Feb-09 03:33N 45°28' E 012°15'0 0.0
2016-Feb-09 02:33N 45°28' E 012°15'0 0.0
2016-Feb-09 01:33N 45°28' E 012°15'0 0.0
2016-Feb-09 00:30N 45°28' E 012°15'0 0.0
2016-Feb-08 23:33N 45°28' E 012°15'0 0.0
2016-Feb-08 22:30N 45°28' E 012°15'0 0.0
2016-Feb-08 21:30N 45°28' E 012°15'0 0.0
2016-Feb-08 20:27N 45°28' E 012°15'0 0.0
2016-Feb-08 18:24N 45°28' E 012°15'0 0.0
2016-Feb-08 06:33N 45°28' E 012°15'6 6.4
2016-Feb-08 05:34N 45°21' E 012°15'10 9.5
2016-Feb-08 04:34N 45°18' E 012°28'10 9.5
2016-Feb-08 03:33N 45°13' E 012°40'  
Track history (hours):
 
Tides and Currents Weather Stations Pressure Air Temp Water Temp Dewpoint Dewpoint Depression Visibility Wind Speed Wind Dir Waves Ship Positions

Sirios Cement IV

Last reported at 2016-Feb-11 21:19 UTC. Time now 2016-Feb-14 14:46 UTC.
Position N 45°04' E 012°44'.

Length 134 m; draft 5.9 m.

Type: Cargo ship. MMSI: 256278000.

Date/timePositionNaut miles runAvg speedWind from/ knotsBaromVisibWave heightAir tempDewpointWater temp
2016-Feb-11 21:19N 45°04' E 012°44'810.2
2016-Feb-11 20:33N 45°09' E 012°36'1010.0
2016-Feb-11 19:33N 45°17' E 012°26'9 8.8
2016-Feb-11 18:33N 45°21' E 012°15'6 6.2
2016-Feb-11 17:32N 45°28' E 012°15'0 0.0
2016-Feb-09 19:15N 45°28' E 012°15'0 0.0
2016-Feb-09 18:33N 45°28' E 012°15'0 0.0
2016-Feb-09 17:27N 45°28' E 012°15'0 0.0
2016-Feb-09 13:18N 45°28' E 012°15'0 0.0
2016-Feb-09 12:27N 45°28' E 012°15'0 0.0
2016-Feb-09 10:18N 45°28' E 012°15'0 0.0
2016-Feb-09 09:33N 45°28' E 012°15'0 0.0
2016-Feb-09 08:33N 45°28' E 012°15'0 0.0
2016-Feb-09 07:33N 45°28' E 012°15'0 0.0
2016-Feb-09 06:33N 45°28' E 012°15'0 0.0
2016-Feb-09 05:30N 45°28' E 012°15'0 0.0
2016-Feb-09 04:24N 45°28' E 012°15'0 0.0
2016-Feb-09 03:33N 45°28' E 012°15'0 0.0
2016-Feb-09 02:33N 45°28' E 012°15'0 0.0
2016-Feb-09 01:33N 45°28' E 012°15'0 0.0
2016-Feb-09 00:30N 45°28' E 012°15'0 0.0
2016-Feb-08 23:33N 45°28' E 012°15'0 0.0
2016-Feb-08 22:30N 45°28' E 012°15'0 0.0
2016-Feb-08 21:30N 45°28' E 012°15'0 0.0
2016-Feb-08 20:27N 45°28' E 012°15'0 0.0
2016-Feb-08 18:24N 45°28' E 012°15'0 0.0
2016-Feb-08 06:33N 45°28' E 012°15'6 6.4
2016-Feb-08 05:34N 45°21' E 012°15'10 9.5
2016-Feb-08 04:34N 45°18' E 012°28'10 9.5
2016-Feb-08 03:33N 45°13' E 012°40'  

Dump ship's entire track history